Time;durP1;ratioP1;P1;durP2;ratioP2;P2;SDS_P1;SDS_P2;PMS_P1;PMS_P2;Temp;Humidity;BMP_temperature;BMP_pressure;BME280_temperature;BME280_humidity;BME280_pressure;Samples;Min_cycle;Max_cycle;Signal;HPM_P1;HPM_P2
2024/03/23 00:01:33;;;;;;;43.53;21.23;;;9.90;99.90;;;;;;4184101;28;20310;-78
2024/03/23 00:03:35;;;;;;;41.03;20.20;;;9.90;99.90;;;;;;4185122;28;20217;-79
2024/03/23 00:05:39;;;;;;;44.13;21.93;;;9.90;99.90;;;;;;4182137;28;20221;-79
2024/03/23 00:07:41;;;;;;;44.60;21.40;;;9.90;99.90;;;;;;4178564;28;20215;-78
2024/03/23 00:09:44;;;;;;;39.57;19.80;;;9.90;99.90;;;;;;4177369;28;20244;-80
2024/03/23 00:11:48;;;;;;;38.87;19.43;;;9.90;99.90;;;;;;4181734;28;20199;-78
2024/03/23 00:13:54;;;;;;;37.90;19.43;;;9.90;99.90;;;;;;4184773;28;20700;-77
2024/03/23 00:15:59;;;;;;;36.83;18.70;;;9.80;99.90;;;;;;4171653;28;21176;-78
2024/03/23 00:18:04;;;;;;;35.03;18.43;;;9.90;99.90;;;;;;4191341;28;20210;-79
2024/03/23 00:20:09;;;;;;;39.60;20.23;;;9.90;99.90;;;;;;4190036;28;20221;-79
2024/03/23 00:22:14;;;;;;;38.23;19.40;;;9.90;99.90;;;;;;4176964;28;20234;-78
2024/03/23 00:24:19;;;;;;;37.40;20.03;;;9.90;99.90;;;;;;4181159;28;20203;-79
2024/03/23 00:26:22;;;;;;;35.63;18.23;;;9.90;99.90;;;;;;4180070;28;20302;-80
2024/03/23 00:28:25;;;;;;;40.10;19.53;;;9.90;99.90;;;;;;4180706;28;20233;-78
2024/03/23 00:30:27;;;;;;;36.83;18.67;;;9.80;99.90;;;;;;4183382;28;20206;-79
2024/03/23 00:32:30;;;;;;;36.17;17.80;;;9.80;99.90;;;;;;4184652;28;20194;-79
2024/03/23 00:34:32;;;;;;;34.50;17.40;;;9.80;99.90;;;;;;4184721;28;20203;-79
2024/03/23 00:36:35;;;;;;;35.37;17.20;;;9.80;99.90;;;;;;4181420;28;20198;-79
2024/03/23 00:38:37;;;;;;;30.17;15.70;;;9.80;99.90;;;;;;4183175;28;20268;-79
2024/03/23 00:40:40;;;;;;;31.03;16.00;;;9.80;99.90;;;;;;4182820;28;20205;-78
2024/03/23 00:42:44;;;;;;;31.90;15.53;;;9.80;99.90;;;;;;4183208;28;20236;-80
2024/03/23 00:44:50;;;;;;;29.17;15.40;;;9.80;99.90;;;;;;4184332;28;20302;-79
2024/03/23 00:46:55;;;;;;;27.83;14.67;;;9.80;99.90;;;;;;4183308;28;20215;-79
2024/03/23 00:49:00;;;;;;;26.73;14.00;;;9.80;99.90;;;;;;4186316;28;20305;-80
2024/03/23 00:51:05;;;;;;;29.70;15.40;;;9.80;99.90;;;;;;4173799;28;20224;-79
2024/03/23 00:53:07;;;;;;;30.87;14.87;;;9.80;99.90;;;;;;4181504;28;20218;-79
2024/03/23 00:55:08;;;;;;;26.47;14.57;;;9.80;99.90;;;;;;4183161;28;20661;-79
2024/03/23 00:57:10;;;;;;;29.67;14.40;;;9.80;99.90;;;;;;4182827;28;20213;-79
2024/03/23 00:59:11;;;;;;;27.93;15.03;;;9.80;99.90;;;;;;4179512;28;20265;-80
2024/03/23 01:01:13;;;;;;;29.57;14.83;;;9.80;99.90;;;;;;4181064;28;20330;-80
2024/03/23 01:03:14;;;;;;;29.03;14.73;;;9.80;99.90;;;;;;4181977;28;20228;-79
2024/03/23 01:05:16;;;;;;;28.70;15.00;;;9.80;99.90;;;;;;4179993;28;20301;-80
2024/03/23 01:07:18;;;;;;;26.93;13.80;;;9.80;99.90;;;;;;4181318;28;20260;-79
2024/03/23 01:09:20;;;;;;;26.70;14.27;;;9.70;99.90;;;;;;4183056;28;20313;-79
2024/03/23 01:11:21;;;;;;;25.83;13.70;;;9.70;99.90;;;;;;4186017;28;20210;-79
2024/03/23 01:13:23;;;;;;;26.90;14.17;;;9.70;99.90;;;;;;4183024;28;20576;-80
2024/03/23 01:15:24;;;;;;;24.63;14.27;;;9.70;99.90;;;;;;4183630;28;20731;-80
2024/03/23 01:17:26;;;;;;;29.73;15.17;;;9.70;99.90;;;;;;4182365;28;20240;-79
2024/03/23 01:19:27;;;;;;;26.63;13.60;;;9.70;99.90;;;;;;4197884;28;20240;-79
2024/03/23 01:21:29;;;;;;;23.43;12.83;;;9.70;99.90;;;;;;4181829;28;20210;-79
2024/03/23 01:23:31;;;;;;;20.97;10.80;;;9.70;99.90;;;;;;4180255;28;20301;-80
2024/03/23 01:25:33;;;;;;;21.40;10.63;;;9.70;99.90;;;;;;4181298;28;20247;-79
2024/03/23 01:27:34;;;;;;;19.40;9.80;;;9.60;99.90;;;;;;4182237;28;20222;-79
2024/03/23 01:29:36;;;;;;;18.40;9.93;;;9.60;99.90;;;;;;4181614;28;20217;-79
2024/03/23 01:31:37;;;;;;;15.40;8.10;;;9.60;99.90;;;;;;4180748;28;20214;-77
2024/03/23 01:33:39;;;;;;;12.93;7.50;;;9.60;99.90;;;;;;4178460;28;20202;-76
2024/03/23 01:35:40;;;;;;;13.40;6.90;;;9.60;99.90;;;;;;4177766;28;20238;-76
2024/03/23 01:37:41;;;;;;;13.20;7.10;;;9.50;99.90;;;;;;4179279;28;20628;-81
2024/03/23 01:39:44;;;;;;;13.43;6.73;;;9.50;99.90;;;;;;4174798;28;20222;-77
2024/03/23 01:41:45;;;;;;;11.67;6.87;;;9.50;99.90;;;;;;4175831;28;20210;-78
2024/03/23 01:43:47;;;;;;;11.97;6.43;;;9.40;99.90;;;;;;4178673;28;20596;-77
2024/03/23 01:45:48;;;;;;;13.90;6.67;;;9.40;99.90;;;;;;4175392;28;20658;-76
2024/03/23 01:47:50;;;;;;;14.53;7.70;;;9.40;99.90;;;;;;4177476;28;20204;-77
2024/03/23 01:49:54;;;;;;;14.87;6.73;;;9.30;99.90;;;;;;4178168;28;20229;-78
2024/03/23 01:51:56;;;;;;;14.83;7.50;;;9.30;99.90;;;;;;4177132;28;20207;-77
2024/03/23 01:54:00;;;;;;;17.60;7.20;;;9.30;99.90;;;;;;4176561;28;20255;-77
2024/03/23 01:56:06;;;;;;;16.83;7.57;;;9.30;99.90;;;;;;4179378;28;20194;-76
2024/03/23 01:58:07;;;;;;;19.43;7.93;;;9.30;99.90;;;;;;4178331;28;20209;-78
2024/03/23 02:00:12;;;;;;;14.87;7.67;;;9.20;99.90;;;;;;4179342;28;20236;-78
2024/03/23 02:02:13;;;;;;;12.53;6.40;;;9.20;99.90;;;;;;4173028;28;20296;-77
2024/03/23 02:04:15;;;;;;;15.07;7.10;;;9.20;99.90;;;;;;4180793;28;20339;-76
2024/03/23 02:06:16;;;;;;;12.90;7.27;;;9.10;99.90;;;;;;4177645;28;20268;-76
2024/03/23 02:08:18;;;;;;;13.73;7.60;;;9.10;99.90;;;;;;4178651;28;20209;-77
2024/03/23 02:10:20;;;;;;;16.23;7.37;;;9.10;99.90;;;;;;4181466;28;20682;-76
2024/03/23 02:12:23;;;;;;;15.23;7.53;;;9.10;99.90;;;;;;4176076;28;20206;-76
2024/03/23 02:14:24;;;;;;;13.37;6.63;;;9.10;99.90;;;;;;4174780;28;20241;-76
2024/03/23 02:16:26;;;;;;;12.93;6.53;;;9.10;99.90;;;;;;4178787;28;20640;-77
2024/03/23 02:18:27;;;;;;;13.57;7.40;;;9.10;99.90;;;;;;4178197;28;20214;-76
2024/03/23 02:20:29;;;;;;;10.87;6.30;;;9.00;99.90;;;;;;4172892;28;20212;-76
2024/03/23 02:22:36;;;;;;;16.07;6.60;;;9.00;99.90;;;;;;4178232;28;20206;-76
2024/03/23 02:24:40;;;;;;;12.37;5.93;;;9.00;99.90;;;;;;4176696;28;20208;-76
2024/03/23 02:26:41;;;;;;;15.73;6.23;;;9.00;99.90;;;;;;4176172;28;20301;-77
2024/03/23 02:28:43;;;;;;;9.73;5.40;;;9.00;99.90;;;;;;4184000;28;20233;-77
2024/03/23 02:30:43;;;;;;;11.40;5.40;;;9.00;99.90;;;;;;4179677;28;20240;-75
2024/03/23 02:32:50;;;;;;;12.07;5.40;;;8.90;99.90;;;;;;4178187;28;20673;-78
2024/03/23 02:34:53;;;;;;;10.23;4.70;;;8.90;99.90;;;;;;4179998;28;20298;-76
2024/03/23 02:36:58;;;;;;;9.27;4.97;;;8.90;99.90;;;;;;4177155;28;20244;-75
2024/03/23 02:38:59;;;;;;;10.20;5.10;;;8.90;99.90;;;;;;4178812;28;20226;-75
2024/03/23 02:41:04;;;;;;;9.43;5.03;;;8.90;99.90;;;;;;4177666;28;20216;-76
2024/03/23 02:43:05;;;;;;;10.90;5.03;;;8.90;99.90;;;;;;4179276;28;20756;-76
2024/03/23 02:45:08;;;;;;;12.53;4.77;;;8.90;99.90;;;;;;4178626;28;20206;-76
2024/03/23 02:47:08;;;;;;;9.43;4.10;;;8.90;99.90;;;;;;4181050;28;20213;-76
2024/03/23 02:49:10;;;;;;;9.70;4.60;;;8.80;99.90;;;;;;4176538;28;20284;-76
2024/03/23 02:51:11;;;;;;;8.80;4.67;;;8.80;99.90;;;;;;4175005;28;20672;-76
2024/03/23 02:53:13;;;;;;;9.67;4.70;;;8.80;99.90;;;;;;4177982;28;20205;-75
2024/03/23 02:55:14;;;;;;;13.50;4.87;;;8.80;99.90;;;;;;4175907;28;20224;-75
2024/03/23 02:57:18;;;;;;;8.27;4.27;;;8.80;99.90;;;;;;4178314;28;20203;-76
2024/03/23 02:59:19;;;;;;;8.93;4.37;;;8.80;99.90;;;;;;4178138;28;20261;-76
2024/03/23 03:01:21;;;;;;;9.83;4.90;;;8.80;99.90;;;;;;4178988;28;20570;-76
2024/03/23 03:03:21;;;;;;;8.60;4.37;;;8.80;99.90;;;;;;4180173;28;20232;-76
2024/03/23 03:05:23;;;;;;;10.47;4.33;;;8.80;99.90;;;;;;4176089;28;20246;-76
2024/03/23 03:07:24;;;;;;;11.47;5.03;;;8.70;99.90;;;;;;4177955;28;20221;-76
2024/03/23 03:09:26;;;;;;;8.40;4.33;;;8.70;99.90;;;;;;4176431;28;20263;-75
2024/03/23 03:11:27;;;;;;;8.40;4.37;;;8.70;99.90;;;;;;4178061;28;20687;-75
2024/03/23 03:13:30;;;;;;;10.80;3.90;;;8.80;99.90;;;;;;4178351;28;20205;-76
2024/03/23 03:15:31;;;;;;;7.07;3.50;;;8.70;99.90;;;;;;4176083;28;20256;-76
2024/03/23 03:17:33;;;;;;;8.70;4.10;;;8.70;99.90;;;;;;4178656;28;20247;-75
2024/03/23 03:19:35;;;;;;;6.30;3.33;;;8.70;99.90;;;;;;4177728;28;20253;-76
2024/03/23 03:21:37;;;;;;;9.57;4.20;;;8.70;99.90;;;;;;4175105;28;20256;-77
2024/03/23 03:23:38;;;;;;;7.67;4.13;;;8.70;99.90;;;;;;4173579;28;20284;-76
2024/03/23 03:25:40;;;;;;;8.77;4.03;;;8.70;99.90;;;;;;4175967;28;20202;-76
2024/03/23 03:27:41;;;;;;;7.43;3.90;;;8.70;99.90;;;;;;4178619;28;20240;-76
2024/03/23 03:29:44;;;;;;;8.00;3.87;;;8.70;99.90;;;;;;4170069;28;20220;-76
2024/03/23 03:31:45;;;;;;;8.70;3.70;;;8.60;99.90;;;;;;4169297;28;20218;-77
2024/03/23 03:33:47;;;;;;;8.70;4.07;;;8.70;99.90;;;;;;4178894;28;20259;-77
2024/03/23 03:35:48;;;;;;;7.93;3.90;;;8.70;99.90;;;;;;4175295;28;20236;-77
2024/03/23 03:37:50;;;;;;;9.97;4.10;;;8.70;99.90;;;;;;4169482;28;20268;-76
2024/03/23 03:39:51;;;;;;;10.10;3.50;;;8.70;99.90;;;;;;4175134;28;20250;-78
2024/03/23 03:41:53;;;;;;;8.93;3.50;;;8.70;99.90;;;;;;4173465;28;20736;-76
2024/03/23 03:43:55;;;;;;;7.87;3.70;;;8.70;99.90;;;;;;4174992;28;20233;-77
2024/03/23 03:45:59;;;;;;;9.00;3.77;;;8.60;99.90;;;;;;4170364;28;20209;-76
2024/03/23 03:48:00;;;;;;;6.83;3.73;;;8.60;99.90;;;;;;4175186;28;20209;-76
2024/03/23 03:50:02;;;;;;;7.47;3.70;;;8.70;99.90;;;;;;4175159;28;20618;-77
2024/03/23 03:52:04;;;;;;;6.90;3.40;;;8.60;99.90;;;;;;4176429;28;20205;-77
2024/03/23 03:54:06;;;;;;;8.37;3.93;;;8.60;99.90;;;;;;4177210;28;20211;-77
2024/03/23 03:56:07;;;;;;;6.80;3.20;;;8.60;99.90;;;;;;4174608;28;20217;-78
2024/03/23 03:58:09;;;;;;;7.57;3.00;;;8.60;99.90;;;;;;4173082;28;20226;-76
2024/03/23 04:00:11;;;;;;;5.43;3.17;;;8.60;99.90;;;;;;4178104;28;20288;-77
2024/03/23 04:02:14;;;;;;;8.10;3.00;;;8.60;99.90;;;;;;4178761;28;20240;-76
2024/03/23 04:04:16;;;;;;;6.87;2.93;;;8.60;99.90;;;;;;4170545;28;20702;-77
2024/03/23 04:06:20;;;;;;;7.53;3.00;;;8.60;99.90;;;;;;4174718;28;20701;-77
2024/03/23 04:08:21;;;;;;;7.10;2.83;;;8.60;99.90;;;;;;4177886;28;20240;-76
2024/03/23 04:10:23;;;;;;;6.47;3.10;;;8.60;99.90;;;;;;4177152;28;20190;-77
2024/03/23 04:12:24;;;;;;;4.53;2.40;;;8.60;99.90;;;;;;4177421;28;20289;-76
2024/03/23 04:14:26;;;;;;;4.63;2.30;;;8.60;99.90;;;;;;4179122;28;20621;-76
2024/03/23 04:16:28;;;;;;;4.13;2.20;;;8.60;99.90;;;;;;4177111;28;20632;-76
2024/03/23 04:18:31;;;;;;;4.73;2.30;;;8.50;99.90;;;;;;4178919;28;20783;-76
2024/03/23 04:20:32;;;;;;;3.37;2.00;;;8.50;99.90;;;;;;4178956;28;20602;-76
2024/03/23 04:22:34;;;;;;;4.80;2.33;;;8.60;99.90;;;;;;4178106;28;20268;-76
2024/03/23 04:24:35;;;;;;;5.33;2.63;;;8.50;99.90;;;;;;4177466;28;20316;-76
2024/03/23 04:26:42;;;;;;;5.23;2.53;;;8.50;99.90;;;;;;4176760;28;20684;-76
2024/03/23 04:28:43;;;;;;;6.30;2.30;;;8.50;99.90;;;;;;4177605;28;20218;-76
2024/03/23 04:30:45;;;;;;;7.50;2.80;;;8.50;99.90;;;;;;4173434;28;20206;-76
2024/03/23 04:32:46;;;;;;;6.40;2.87;;;8.50;99.90;;;;;;4174957;28;20216;-76
2024/03/23 04:34:50;;;;;;;4.17;2.23;;;8.50;99.90;;;;;;4179607;28;20201;-76
2024/03/23 04:36:52;;;;;;;6.43;2.80;;;8.50;99.90;;;;;;4181238;28;20241;-78
2024/03/23 04:38:54;;;;;;;5.03;2.63;;;8.50;99.90;;;;;;4178705;28;20233;-76
2024/03/23 04:40:55;;;;;;;6.03;3.10;;;8.50;99.90;;;;;;4174243;28;20248;-76
2024/03/23 04:42:57;;;;;;;8.03;2.87;;;8.50;99.90;;;;;;4177923;28;20233;-76
2024/03/23 04:44:59;;;;;;;5.87;2.50;;;8.50;99.90;;;;;;4181311;28;20413;-77
2024/03/23 04:47:02;;;;;;;6.47;2.53;;;8.50;99.90;;;;;;4180543;28;20210;-76
2024/03/23 04:49:04;;;;;;;6.27;2.90;;;8.50;99.90;;;;;;4179969;28;20226;-77
2024/03/23 04:51:06;;;;;;;8.37;3.30;;;8.50;99.90;;;;;;4178287;28;20210;-76
2024/03/23 04:53:08;;;;;;;7.70;2.80;;;8.40;99.90;;;;;;4178391;28;20236;-76
2024/03/23 04:55:11;;;;;;;5.23;2.50;;;8.40;99.90;;;;;;4177565;28;20220;-76
2024/03/23 04:57:13;;;;;;;4.73;2.30;;;8.50;99.90;;;;;;4178434;28;20314;-77
2024/03/23 04:59:14;;;;;;;6.10;2.93;;;8.50;99.90;;;;;;4182474;28;20286;-76
2024/03/23 05:01:16;;;;;;;6.03;2.93;;;8.50;99.90;;;;;;4172324;28;20215;-76
2024/03/23 05:03:19;;;;;;;7.73;2.87;;;8.40;99.90;;;;;;4180699;28;20231;-76
2024/03/23 05:05:20;;;;;;;6.57;3.00;;;8.40;99.90;;;;;;4172397;28;20211;-76
2024/03/23 05:07:23;;;;;;;7.07;2.83;;;8.50;99.90;;;;;;4185052;28;20201;-76
2024/03/23 05:09:26;;;;;;;8.27;3.10;;;8.40;99.90;;;;;;4183289;28;20225;-76
2024/03/23 05:11:29;;;;;;;7.00;2.97;;;8.40;99.90;;;;;;4180828;28;20270;-76
2024/03/23 05:13:29;;;;;;;5.57;2.53;;;8.40;99.90;;;;;;4181575;28;20208;-76
2024/03/23 05:15:31;;;;;;;6.77;3.03;;;8.40;99.90;;;;;;4183124;28;20205;-76
2024/03/23 05:17:32;;;;;;;14.20;3.27;;;8.40;99.90;;;;;;4171330;28;20304;-76
2024/03/23 05:19:34;;;;;;;6.57;2.93;;;8.40;99.90;;;;;;4180508;28;20670;-76
2024/03/23 05:21:35;;;;;;;6.13;2.80;;;8.40;99.90;;;;;;4179512;28;20217;-76
2024/03/23 05:23:39;;;;;;;4.70;2.53;;;8.40;99.90;;;;;;4178879;28;20725;-77
2024/03/23 05:25:39;;;;;;;7.17;2.80;;;8.40;99.90;;;;;;4178587;28;20196;-75
2024/03/23 05:27:41;;;;;;;5.30;2.90;;;8.40;99.90;;;;;;4181953;28;20227;-76
2024/03/23 05:29:42;;;;;;;4.97;2.50;;;8.40;99.90;;;;;;4178198;28;20260;-75
2024/03/23 05:31:43;;;;;;;4.57;2.47;;;8.40;99.90;;;;;;4174950;28;20197;-78
2024/03/23 05:33:48;;;;;;;7.43;3.23;;;8.40;99.90;;;;;;4181139;28;20699;-76
2024/03/23 05:35:57;;;;;;;7.83;3.67;;;8.40;99.90;;;;;;4180617;28;20635;-76
2024/03/23 05:37:59;;;;;;;7.90;3.63;;;8.40;99.90;;;;;;4178757;28;20746;-77
2024/03/23 05:40:03;;;;;;;10.77;3.27;;;8.40;99.90;;;;;;4177503;28;20225;-76
2024/03/23 05:42:05;;;;;;;6.70;3.27;;;8.30;99.90;;;;;;4174749;28;20220;-79
2024/03/23 05:44:06;;;;;;;7.17;3.63;;;8.40;99.90;;;;;;4179412;28;20259;-77
2024/03/23 05:46:08;;;;;;;8.13;3.77;;;8.40;99.90;;;;;;4176081;28;20231;-77
2024/03/23 05:48:09;;;;;;;7.57;3.67;;;8.40;99.90;;;;;;4183738;28;20210;-76
2024/03/23 05:50:12;;;;;;;7.47;3.60;;;8.30;99.90;;;;;;4184574;28;20220;-76
2024/03/23 05:52:13;;;;;;;6.73;3.47;;;8.30;99.90;;;;;;4180587;28;20204;-77
2024/03/23 05:54:15;;;;;;;8.30;3.63;;;8.30;99.90;;;;;;4187969;28;20742;-76
2024/03/23 05:56:20;;;;;;;9.37;4.00;;;8.30;99.90;;;;;;4184214;28;20239;-76
2024/03/23 05:58:22;;;;;;;9.13;3.50;;;8.30;99.90;;;;;;4185490;28;20244;-76
2024/03/23 06:00:26;;;;;;;11.43;4.40;;;8.30;99.90;;;;;;4183301;28;20212;-77
2024/03/23 06:02:28;;;;;;;8.37;3.40;;;8.30;99.90;;;;;;4184018;28;20197;-76
2024/03/23 06:04:29;;;;;;;9.87;3.70;;;8.30;99.90;;;;;;4173145;28;20226;-78
2024/03/23 06:06:31;;;;;;;7.83;3.77;;;8.30;99.90;;;;;;4177301;28;20205;-76
2024/03/23 06:08:32;;;;;;;8.63;4.00;;;8.30;99.90;;;;;;4171086;28;20727;-80
2024/03/23 06:10:34;;;;;;;6.13;3.50;;;8.30;99.90;;;;;;4178111;28;20228;-77
2024/03/23 06:12:36;;;;;;;8.20;3.80;;;8.30;99.90;;;;;;4182035;28;20212;-78
2024/03/23 06:14:38;;;;;;;11.50;3.80;;;8.30;99.90;;;;;;4170887;28;20208;-76
2024/03/23 06:16:39;;;;;;;11.60;4.73;;;8.30;99.90;;;;;;4176117;28;20217;-77
2024/03/23 06:18:41;;;;;;;11.87;4.67;;;8.30;99.90;;;;;;4187742;28;20229;-76
2024/03/23 06:20:42;;;;;;;11.37;4.77;;;8.30;99.90;;;;;;4174763;28;20244;-76
2024/03/23 06:22:44;;;;;;;8.83;3.90;;;8.20;99.90;;;;;;4181346;28;20223;-76
2024/03/23 06:24:45;;;;;;;10.23;4.60;;;8.20;99.90;;;;;;4179669;28;20231;-78
2024/03/23 06:26:47;;;;;;;10.03;4.30;;;8.30;99.90;;;;;;4175942;28;20209;-76
2024/03/23 06:28:49;;;;;;;10.90;4.77;;;8.30;99.90;;;;;;4185084;28;20241;-75
2024/03/23 06:30:51;;;;;;;10.33;4.00;;;8.30;99.90;;;;;;4182434;28;20207;-77
2024/03/23 06:32:53;;;;;;;11.40;4.73;;;8.30;99.90;;;;;;4176316;28;20644;-76
2024/03/23 06:34:55;;;;;;;9.63;4.53;;;8.30;99.90;;;;;;4176171;28;20209;-76
2024/03/23 06:36:55;;;;;;;12.50;4.30;;;8.30;99.90;;;;;;4178402;28;20230;-76
2024/03/23 06:38:57;;;;;;;9.53;4.33;;;8.30;99.90;;;;;;4181028;28;20699;-76
2024/03/23 06:40:58;;;;;;;9.37;4.90;;;8.40;99.90;;;;;;4176236;28;20732;-75
2024/03/23 06:43:00;;;;;;;9.80;4.37;;;8.40;99.90;;;;;;4178310;28;20207;-77
2024/03/23 06:45:03;;;;;;;8.33;4.43;;;8.40;99.90;;;;;;4173958;28;20241;-79
2024/03/23 06:47:06;;;;;;;10.20;4.40;;;8.40;99.90;;;;;;4178396;28;20220;-76
2024/03/23 06:49:06;;;;;;;10.60;4.40;;;8.40;99.90;;;;;;4175472;28;20225;-80
2024/03/23 06:51:09;;;;;;;9.43;4.57;;;8.50;99.90;;;;;;4176192;28;20216;-78
2024/03/23 06:53:09;;;;;;;11.53;4.50;;;8.40;99.90;;;;;;4175384;28;20709;-78
2024/03/23 06:55:11;;;;;;;10.87;4.30;;;8.40;99.90;;;;;;4179276;28;20193;-75
2024/03/23 06:57:12;;;;;;;9.47;4.20;;;8.40;99.90;;;;;;4172614;28;20206;-76
2024/03/23 06:59:14;;;;;;;10.27;4.47;;;8.40;99.90;;;;;;4174980;28;20671;-75
2024/03/23 07:01:16;;;;;;;10.37;4.70;;;8.40;99.90;;;;;;4179675;28;20228;-75
2024/03/23 07:03:18;;;;;;;9.73;4.20;;;8.40;99.90;;;;;;4177099;28;20218;-75
2024/03/23 07:05:19;;;;;;;12.43;5.43;;;8.30;99.90;;;;;;4169795;28;20202;-79
2024/03/23 07:07:23;;;;;;;10.40;4.53;;;8.40;99.90;;;;;;4177580;28;20576;-76
2024/03/23 07:09:26;;;;;;;9.83;4.97;;;8.30;99.90;;;;;;4173661;28;20230;-78
2024/03/23 07:11:27;;;;;;;8.90;4.43;;;8.40;99.90;;;;;;4178576;28;20791;-75
2024/03/23 07:13:28;;;;;;;12.77;4.67;;;8.40;99.90;;;;;;4179855;28;20289;-76
2024/03/23 07:15:30;;;;;;;12.67;4.83;;;8.30;99.90;;;;;;4176013;28;20199;-78
2024/03/23 07:17:34;;;;;;;9.80;5.67;;;8.30;99.90;;;;;;4179853;28;20708;-76
2024/03/23 07:19:36;;;;;;;11.60;5.33;;;8.30;99.90;;;;;;4176613;28;20230;-76
2024/03/23 07:21:37;;;;;;;12.47;5.03;;;8.30;99.90;;;;;;4180097;28;20255;-79
2024/03/23 07:23:44;;;;;;;8.23;3.97;;;8.30;99.90;;;;;;4176882;28;20665;-78
2024/03/23 07:25:45;;;;;;;10.47;4.10;;;8.20;99.90;;;;;;4179305;28;20669;-76
2024/03/23 07:27:47;;;;;;;9.07;4.40;;;8.20;99.90;;;;;;4178942;28;20220;-76
2024/03/23 07:29:48;;;;;;;12.03;4.20;;;8.20;99.90;;;;;;4177718;28;20659;-76
2024/03/23 07:31:50;;;;;;;13.27;3.70;;;8.10;99.90;;;;;;4178464;28;20209;-76
2024/03/23 07:33:52;;;;;;;16.37;3.60;;;8.10;99.90;;;;;;4175429;28;20642;-74
2024/03/23 07:35:54;;;;;;;13.33;3.60;;;7.90;99.90;;;;;;4184365;28;20690;-76
2024/03/23 07:37:54;;;;;;;10.70;3.47;;;7.80;99.90;;;;;;4177055;28;20292;-76
2024/03/23 07:39:57;;;;;;;6.27;2.40;;;7.70;99.90;;;;;;4177976;28;20225;-75
2024/03/23 07:41:58;;;;;;;8.47;3.07;;;7.60;99.90;;;;;;4180264;28;20210;-75
2024/03/23 07:44:00;;;;;;;8.50;2.80;;;7.60;99.90;;;;;;4176126;28;20213;-75
2024/03/23 07:46:01;;;;;;;10.67;3.87;;;7.40;99.90;;;;;;4175934;28;20811;-75
2024/03/23 07:48:02;;;;;;;7.57;4.53;;;7.30;99.90;;;;;;4179914;28;20238;-74
2024/03/23 07:50:06;;;;;;;5.37;2.77;;;7.20;99.90;;;;;;4171899;28;20226;-75
2024/03/23 07:52:09;;;;;;;4.30;1.97;;;7.10;99.90;;;;;;4175560;28;20269;-75
2024/03/23 07:54:09;;;;;;;8.87;1.60;;;7.00;99.90;;;;;;4175304;28;20208;-74
2024/03/23 07:56:12;;;;;;;2.47;1.23;;;6.80;99.90;;;;;;4176750;28;20218;-74
2024/03/23 07:58:15;;;;;;;4.33;1.30;;;6.70;99.90;;;;;;4174316;28;20592;-76
2024/03/23 08:00:18;;;;;;;8.30;1.50;;;6.50;99.90;;;;;;4176181;28;20197;-76
2024/03/23 08:02:18;;;;;;;3.47;1.37;;;6.40;99.90;;;;;;4176786;28;20584;-75
2024/03/23 08:04:20;;;;;;;4.23;1.47;;;6.30;99.90;;;;;;4172975;28;20223;-76
2024/03/23 08:06:23;;;;;;;7.57;1.40;;;6.30;99.90;;;;;;4177179;28;20209;-75
2024/03/23 08:08:26;;;;;;;5.27;1.57;;;6.20;99.90;;;;;;4176754;28;20945;-75
2024/03/23 08:10:27;;;;;;;3.07;1.10;;;6.10;99.90;;;;;;4181504;28;21467;-74
2024/03/23 08:12:29;;;;;;;4.80;1.13;;;5.80;99.90;;;;;;4178557;28;20442;-75
2024/03/23 08:14:29;;;;;;;4.17;1.50;;;5.90;99.90;;;;;;4169603;28;20289;-75
2024/03/23 08:16:31;;;;;;;3.97;1.30;;;5.80;99.90;;;;;;4176972;28;20230;-74
2024/03/23 08:18:33;;;;;;;2.23;1.07;;;5.70;99.90;;;;;;4179508;28;20222;-74
2024/03/23 08:20:35;;;;;;;4.30;1.37;;;5.70;99.90;;;;;;4181849;28;20437;-74
2024/03/23 08:22:37;;;;;;;5.23;1.20;;;5.60;99.90;;;;;;4181665;28;20472;-74
2024/03/23 08:24:39;;;;;;;3.17;1.20;;;5.50;99.90;;;;;;4176434;28;20881;-74
2024/03/23 08:26:40;;;;;;;2.30;1.00;;;5.50;99.90;;;;;;4180067;28;20770;-74
2024/03/23 08:28:41;;;;;;;1.70;0.90;;;5.40;99.90;;;;;;4181151;28;20483;-74
2024/03/23 08:30:43;;;;;;;2.53;0.90;;;5.30;99.90;;;;;;4181416;28;20208;-74
2024/03/23 08:32:44;;;;;;;1.50;0.80;;;5.30;99.90;;;;;;4174835;28;20461;-75
2024/03/23 08:34:46;;;;;;;4.60;1.37;;;5.30;99.90;;;;;;4177130;28;21174;-74
2024/03/23 08:36:47;;;;;;;3.63;1.10;;;5.20;99.90;;;;;;4170884;28;20211;-73
2024/03/23 08:38:53;;;;;;;6.80;1.73;;;5.20;99.90;;;;;;4181013;28;20929;-73
2024/03/23 08:40:57;;;;;;;4.17;1.50;;;5.10;99.90;;;;;;4175091;28;20275;-74
2024/03/23 08:42:59;;;;;;;5.07;1.27;;;5.10;99.90;;;;;;4174156;28;21169;-73
2024/03/23 08:45:00;;;;;;;5.70;2.10;;;5.10;99.90;;;;;;4174840;28;20493;-73
2024/03/23 08:47:02;;;;;;;3.70;2.00;;;5.00;99.90;;;;;;4171498;28;20928;-74
2024/03/23 08:49:03;;;;;;;3.97;1.50;;;5.00;99.90;;;;;;4179243;28;20249;-75
2024/03/23 08:51:06;;;;;;;2.97;1.03;;;5.00;99.90;;;;;;4180732;28;20453;-74
2024/03/23 08:53:07;;;;;;;3.13;1.33;;;4.90;99.90;;;;;;4174093;28;20201;-74
2024/03/23 08:55:10;;;;;;;4.30;1.33;;;4.90;99.90;;;;;;4175632;28;20448;-75
2024/03/23 08:57:11;;;;;;;2.87;1.10;;;4.90;99.90;;;;;;4174370;28;20452;-75
2024/03/23 08:59:13;;;;;;;2.57;1.27;;;4.90;99.90;;;;;;4178437;28;20537;-76
2024/03/23 09:01:14;;;;;;;8.20;1.50;;;4.80;99.90;;;;;;4183632;28;20213;-75
2024/03/23 09:03:16;;;;;;;5.20;1.47;;;4.80;99.90;;;;;;4176856;28;20832;-75
2024/03/23 09:05:17;;;;;;;6.20;1.47;;;4.80;99.90;;;;;;4174646;28;20284;-76
2024/03/23 09:07:21;;;;;;;6.50;1.50;;;4.80;99.90;;;;;;4179852;28;20486;-74
2024/03/23 09:09:23;;;;;;;3.70;1.47;;;4.80;99.90;;;;;;4172296;28;20530;-75
2024/03/23 09:11:27;;;;;;;5.43;1.60;;;4.90;99.90;;;;;;4173667;28;20529;-75
2024/03/23 09:13:28;;;;;;;5.13;1.50;;;4.80;99.90;;;;;;4172867;28;20538;-75
2024/03/23 09:15:31;;;;;;;7.10;1.20;;;4.80;99.90;;;;;;4175790;28;20449;-74
2024/03/23 09:17:31;;;;;;;6.20;1.47;;;4.80;99.90;;;;;;4174981;28;20207;-74
2024/03/23 09:19:33;;;;;;;3.17;1.30;;;4.70;99.90;;;;;;4180697;28;20463;-74
2024/03/23 09:21:34;;;;;;;3.37;1.53;;;4.70;99.90;;;;;;4176648;28;20205;-74
2024/03/23 09:23:36;;;;;;;3.90;1.23;;;4.70;99.90;;;;;;4172189;28;20456;-74
2024/03/23 09:25:38;;;;;;;4.23;1.40;;;4.70;99.90;;;;;;4177305;28;20228;-74
2024/03/23 09:27:41;;;;;;;5.03;1.30;;;4.70;99.90;;;;;;4178935;28;20823;-74
2024/03/23 09:29:42;;;;;;;1.80;1.10;;;4.70;99.90;;;;;;4178639;28;20475;-74
2024/03/23 09:31:46;;;;;;;2.07;1.20;;;4.80;99.90;;;;;;4179495;28;20444;-74
2024/03/23 09:33:46;;;;;;;7.43;1.23;;;4.80;99.90;;;;;;4179749;28;20210;-73
2024/03/23 09:35:48;;;;;;;4.37;1.67;;;4.80;99.90;;;;;;4178283;28;20436;-74
2024/03/23 09:37:49;;;;;;;4.20;1.23;;;4.90;99.90;;;;;;4180257;28;20636;-74
2024/03/23 09:39:51;;;;;;;2.00;1.30;;;4.90;99.90;;;;;;4178003;28;20471;-73
2024/03/23 09:41:56;;;;;;;3.23;1.73;;;4.90;99.90;;;;;;4171073;28;20301;-74
2024/03/23 09:43:59;;;;;;;5.60;1.80;;;4.80;99.90;;;;;;4177954;28;20923;-73
2024/03/23 09:46:02;;;;;;;4.83;2.00;;;4.80;99.90;;;;;;4173607;28;20464;-73
2024/03/23 09:48:04;;;;;;;6.40;1.80;;;4.80;99.90;;;;;;4172632;28;20550;-74
2024/03/23 09:50:07;;;;;;;6.67;2.03;;;4.80;99.90;;;;;;4182435;28;20463;-73
2024/03/23 09:52:08;;;;;;;6.37;1.93;;;4.70;99.90;;;;;;4176007;28;20968;-75
2024/03/23 09:54:12;;;;;;;5.67;1.80;;;4.70;99.90;;;;;;4176942;28;20488;-73
2024/03/23 09:56:13;;;;;;;3.67;1.30;;;4.70;99.90;;;;;;4176615;28;20241;-74
2024/03/23 09:58:17;;;;;;;5.33;1.73;;;4.70;99.90;;;;;;4181405;28;20461;-73
2024/03/23 10:00:19;;;;;;;5.40;1.60;;;4.70;99.90;;;;;;4178744;28;20406;-74
2024/03/23 10:02:22;;;;;;;2.80;1.60;;;4.70;99.90;;;;;;4178744;28;20468;-73
2024/03/23 10:04:39;;;;;;;5.53;1.20;;;4.70;99.90;;;;;;4176438;28;20579;-73
2024/03/23 10:06:40;;;;;;;4.03;1.30;;;4.70;99.90;;;;;;4175167;28;20530;-74
2024/03/23 10:08:41;;;;;;;3.97;1.27;;;4.60;99.90;;;;;;4178386;28;20985;-74
2024/03/23 10:10:43;;;;;;;2.53;1.20;;;4.60;99.90;;;;;;4177878;28;20446;-73
2024/03/23 10:12:47;;;;;;;1.50;0.90;;;4.60;99.90;;;;;;4175485;28;20225;-74
2024/03/23 10:14:47;;;;;;;1.73;1.00;;;4.50;99.90;;;;;;4176284;28;20507;-74
2024/03/23 10:16:51;;;;;;;1.87;0.97;;;4.50;99.90;;;;;;4178930;28;21014;-74
2024/03/23 10:18:52;;;;;;;1.47;0.80;;;4.40;99.90;;;;;;4178882;28;20224;-73
2024/03/23 10:21:10;;;;;;;2.73;0.80;;;4.40;99.90;;;;;;4179081;28;20499;-75
2024/03/23 10:23:16;;;;;;;0.60;0.60;;;4.30;99.90;;;;;;4180070;28;20292;-74
2024/03/23 10:25:18;;;;;;;1.23;0.83;;;4.20;99.90;;;;;;4176167;28;20475;-72
2024/03/23 10:27:20;;;;;;;2.57;1.17;;;4.20;99.90;;;;;;4179145;28;20478;-72
2024/03/23 10:29:23;;;;;;;2.90;1.20;;;4.20;99.90;;;;;;4177444;28;20464;-73
2024/03/23 10:31:24;;;;;;;1.90;1.33;;;4.20;99.90;;;;;;4179011;28;20485;-72
2024/03/23 10:33:27;;;;;;;3.13;1.20;;;4.20;99.90;;;;;;4176752;28;20450;-72
2024/03/23 10:35:28;;;;;;;1.93;1.43;;;4.10;99.90;;;;;;4177941;28;20482;-72
2024/03/23 10:37:31;;;;;;;6.33;2.07;;;4.10;99.90;;;;;;4173730;28;20448;-72
2024/03/23 10:39:34;;;;;;;4.27;2.50;;;4.00;99.90;;;;;;4177556;28;20521;-71
2024/03/23 10:41:37;;;;;;;5.33;2.87;;;4.10;99.90;;;;;;4180482;28;20453;-71